Time;durP1;ratioP1;P1;durP2;ratioP2;P2;SDS_P1;SDS_P2;PMS_P1;PMS_P2;Temp;Humidity;BMP_temperature;BMP_pressure;BME280_temperature;BME280_humidity;BME280_pressure;Samples;Min_cycle;Max_cycle;Signal;HPM_P1;HPM_P2
2024/01/19 00:03:53;;;;;;;73.00;24.23;;;;;;;;;;10339742;23;20460;-89
2024/01/19 00:07:57;;;;;;;63.00;23.05;;;;;;;;;;10339512;23;20020;-89
2024/01/19 00:12:01;;;;;;;58.80;21.98;;;;;;;;;;10316071;23;20518;-88
2024/01/19 00:24:25;;;;;;;58.97;24.42;;;;;;;;;;10344361;22;20469;-88
2024/01/19 00:32:53;;;;;;;60.47;24.92;;;;;;;;;;10341367;22;20095;-90
2024/01/19 00:51:57;;;;;;;69.57;26.63;;;;;;;;;;10338821;22;20138;-93
2024/01/19 01:01:07;;;;;;;46.28;15.75;;;;;;;;;;10286845;23;20058;-90
2024/01/19 01:05:11;;;;;;;51.83;20.38;;;;;;;;;;10342764;23;20016;-92
2024/01/19 01:09:16;;;;;;;59.72;22.05;;;;;;;;;;10313957;23;20020;-91
2024/01/19 01:13:19;;;;;;;57.47;22.80;;;;;;;;;;10339254;23;20032;-89
2024/01/19 01:17:22;;;;;;;55.88;21.35;;;;;;;;;;10341784;23;20238;-89
2024/01/19 01:21:26;;;;;;;56.85;21.85;;;;;;;;;;10341603;23;20483;-89
2024/01/19 01:42:08;;;;;;;44.90;18.52;;;;;;;;;;10338778;22;20024;-91
2024/01/19 01:51:07;;;;;;;57.95;21.67;;;;;;;;;;10294153;23;20101;-90
2024/01/19 01:55:10;;;;;;;59.53;21.75;;;;;;;;;;10340141;23;20016;-92
2024/01/19 01:59:15;;;;;;;52.95;20.90;;;;;;;;;;10341021;23;20016;-94
2024/01/19 02:03:18;;;;;;;50.83;19.85;;;;;;;;;;10340697;23;20016;-90
2024/01/19 02:07:23;;;;;;;56.42;19.08;;;;;;;;;;10357673;23;20016;-90
2024/01/19 02:11:26;;;;;;;49.13;20.13;;;;;;;;;;10341165;23;20020;-91
2024/01/19 02:15:41;;;;;;;50.35;19.75;;;;;;;;;;10314520;23;20322;-91
2024/01/19 02:19:46;;;;;;;48.15;18.30;;;;;;;;;;10314746;23;20100;-90
2024/01/19 02:23:55;;;;;;;43.80;18.95;;;;;;;;;;10342949;23;20020;-92
2024/01/19 02:27:59;;;;;;;51.83;20.55;;;;;;;;;;10343766;23;20064;-90
2024/01/19 02:32:02;;;;;;;61.53;21.52;;;;;;;;;;10343633;23;20023;-89
2024/01/19 02:36:06;;;;;;;47.85;19.33;;;;;;;;;;10316538;23;20020;-91
2024/01/19 02:40:10;;;;;;;62.88;21.52;;;;;;;;;;10342532;23;20043;-93
2024/01/19 02:44:15;;;;;;;60.58;22.52;;;;;;;;;;10341372;23;20044;-89
2024/01/19 02:48:18;;;;;;;54.67;21.38;;;;;;;;;;10342989;23;20020;-90
2024/01/19 02:52:21;;;;;;;52.20;20.95;;;;;;;;;;10342683;23;20348;-89
2024/01/19 03:05:52;;;;;;;59.70;22.15;;;;;;;;;;10236273;23;20021;-89
2024/01/19 03:10:01;;;;;;;54.92;21.83;;;;;;;;;;10240456;23;20040;-88
2024/01/19 03:14:08;;;;;;;43.90;19.08;;;;;;;;;;10257045;23;20092;-89
2024/01/19 03:18:12;;;;;;;60.92;20.98;;;;;;;;;;10241234;23;20458;-89
2024/01/19 03:22:18;;;;;;;47.35;19.00;;;;;;;;;;10243505;23;20021;-94
2024/01/19 03:26:21;;;;;;;49.60;18.73;;;;;;;;;;10267682;23;20021;-94
2024/01/19 03:30:24;;;;;;;43.80;19.20;;;;;;;;;;10243175;23;20013;-94
2024/01/19 03:34:28;;;;;;;38.78;15.00;;;;;;;;;;10241552;23;20382;-92
2024/01/19 03:38:34;;;;;;;44.85;17.25;;;;;;;;;;10244949;23;20393;-88
2024/01/19 03:42:37;;;;;;;47.67;17.42;;;;;;;;;;10268450;23;20025;-88
2024/01/19 03:46:40;;;;;;;53.05;19.08;;;;;;;;;;10264041;23;20338;-93
2024/01/19 03:50:43;;;;;;;41.25;16.08;;;;;;;;;;10240268;23;20017;-88
2024/01/19 03:54:50;;;;;;;40.33;16.15;;;;;;;;;;10241474;23;20342;-93
2024/01/19 03:58:53;;;;;;;36.67;14.65;;;;;;;;;;10240744;23;20041;-91
2024/01/19 04:02:56;;;;;;;54.17;18.25;;;;;;;;;;10240796;23;20025;-89
2024/01/19 04:06:59;;;;;;;42.25;18.55;;;;;;;;;;10214191;23;20025;-89
2024/01/19 04:11:03;;;;;;;43.58;16.52;;;;;;;;;;10239610;23;20028;-90
2024/01/19 04:15:08;;;;;;;40.63;15.93;;;;;;;;;;10231106;23;20032;-92
2024/01/19 04:19:13;;;;;;;36.95;14.90;;;;;;;;;;10239093;23;20023;-89
2024/01/19 04:23:16;;;;;;;44.90;16.90;;;;;;;;;;10238673;23;20024;-88
2024/01/19 04:27:28;;;;;;;47.20;16.40;;;;;;;;;;10239921;23;20017;-92
2024/01/19 04:31:39;;;;;;;;;;;;;;;;;;10257948;23;20092;-91
2024/01/19 04:35:44;;;;;;;32.35;13.60;;;;;;;;;;10256704;23;19955;-91
2024/01/19 04:39:47;;;;;;;45.65;15.63;;;;;;;;;;10213266;23;20346;-91
2024/01/19 04:43:51;;;;;;;21.75;8.35;;;;;;;;;;10239714;23;20017;-92
2024/01/19 04:47:54;;;;;;;36.30;14.13;;;;;;;;;;10213350;23;20017;-90
2024/01/19 04:51:57;;;;;;;41.30;15.45;;;;;;;;;;10213575;23;20522;-92
2024/01/19 04:56:00;;;;;;;24.70;10.60;;;;;;;;;;10239583;23;20020;-91
2024/01/19 05:00:07;;;;;;;29.27;11.48;;;;;;;;;;10212443;23;20469;-90
2024/01/19 05:04:10;;;;;;;51.03;19.20;;;;;;;;;;10213118;23;20349;-88
2024/01/19 05:08:13;;;;;;;35.90;15.77;;;;;;;;;;10237807;23;20025;-91
2024/01/19 05:12:16;;;;;;;28.67;11.75;;;;;;;;;;10239326;23;20025;-92
2024/01/19 05:16:20;;;;;;;24.38;10.35;;;;;;;;;;10239801;23;20024;-89
2024/01/19 05:20:23;;;;;;;36.85;13.93;;;;;;;;;;10239307;23;20043;-91
2024/01/19 05:24:30;;;;;;;41.33;13.20;;;;;;;;;;10305857;22;20024;-87
2024/01/19 05:28:36;;;;;;;23.05;10.43;;;;;;;;;;10339685;23;20016;-89
2024/01/19 05:32:40;;;;;;;32.40;12.02;;;;;;;;;;10338709;23;20020;-89
2024/01/19 05:47:22;;;;;;;32.97;11.43;;;;;;;;;;10337586;23;20153;-88
2024/01/19 05:56:45;;;;;;;26.13;11.48;;;;;;;;;;10254684;23;20352;-90
2024/01/19 06:06:12;;;;;;;22.77;9.60;;;;;;;;;;10337320;23;20523;-88
2024/01/19 06:10:16;;;;;;;31.40;11.93;;;;;;;;;;10337367;23;20081;-89
2024/01/19 06:14:21;;;;;;;22.75;9.25;;;;;;;;;;10337470;23;20352;-91
2024/01/19 06:18:24;;;;;;;27.38;10.20;;;;;;;;;;10337420;23;20027;-90
2024/01/19 06:22:28;;;;;;;28.90;12.15;;;;;;;;;;10350015;23;20083;-89
2024/01/19 06:26:33;;;;;;;29.40;11.52;;;;;;;;;;10375226;23;20028;-87
2024/01/19 06:34:49;;;;;;;39.63;14.88;;;;;;;;;;10378239;22;20004;-87
2024/01/19 06:38:54;;;;;;;50.42;16.15;;;;;;;;;;10380180;23;20035;-87
2024/01/19 06:42:57;;;;;;;18.42;7.38;;;;;;;;;;10327074;22;20051;-88
2024/01/19 06:47:02;;;;;;;20.17;8.50;;;;;;;;;;10335622;23;20463;-89
2024/01/19 06:51:08;;;;;;;16.30;8.15;;;;;;;;;;10379717;23;20020;-88
2024/01/19 06:55:11;;;;;;;29.13;12.80;;;;;;;;;;10343894;23;20028;-89
2024/01/19 06:59:14;;;;;;;42.38;15.38;;;;;;;;;;10338270;23;20046;-89
2024/01/19 07:03:17;;;;;;;89.95;29.05;;;;;;;;;;10310901;23;20024;-92
2024/01/19 07:11:56;;;;;;;24.23;11.57;;;;;;;;;;10346636;23;20400;-87
2024/01/19 07:16:00;;;;;;;37.08;15.95;;;;;;;;;;10312152;22;20619;-88
2024/01/19 07:20:08;;;;;;;39.75;15.50;;;;;;;;;;10314434;23;20020;-87
2024/01/19 07:24:13;;;;;;;53.03;21.20;;;;;;;;;;10288686;23;20099;-88
2024/01/19 07:28:17;;;;;;;30.77;14.25;;;;;;;;;;10356665;23;20020;-90
2024/01/19 07:32:21;;;;;;;25.35;10.75;;;;;;;;;;10313001;23;20147;-89
2024/01/19 07:36:25;;;;;;;44.30;19.33;;;;;;;;;;10329778;23;20016;-89
2024/01/19 07:40:31;;;;;;;33.90;14.25;;;;;;;;;;10312941;23;20119;-88
2024/01/19 07:44:37;;;;;;;46.45;16.77;;;;;;;;;;10339108;23;20046;-88
2024/01/19 07:48:39;;;;;;;44.85;18.40;;;;;;;;;;10355791;23;20017;-88
2024/01/19 07:52:44;;;;;;;30.92;14.70;;;;;;;;;;10339067;23;20050;-89
2024/01/19 07:56:49;;;;;;;31.63;15.15;;;;;;;;;;10339050;23;20340;-88
2024/01/19 08:00:52;;;;;;;36.30;15.63;;;;;;;;;;10339883;23;20344;-90
2024/01/19 08:04:55;;;;;;;40.63;16.58;;;;;;;;;;10339021;23;20039;-89
2024/01/19 08:08:58;;;;;;;31.80;13.63;;;;;;;;;;10338819;23;20023;-89
2024/01/19 08:13:02;;;;;;;31.85;13.63;;;;;;;;;;10338770;23;20020;-89
2024/01/19 08:17:08;;;;;;;38.70;14.15;;;;;;;;;;10311729;23;20461;-88
2024/01/19 08:21:11;;;;;;;25.90;13.25;;;;;;;;;;10338405;23;20024;-90
2024/01/19 08:25:14;;;;;;;43.08;16.38;;;;;;;;;;10338923;23;20405;-89
2024/01/19 08:29:19;;;;;;;29.92;12.75;;;;;;;;;;10338814;23;20022;-89
2024/01/19 08:33:22;;;;;;;55.83;20.25;;;;;;;;;;10338694;23;20024;-90
2024/01/19 08:37:25;;;;;;;126.95;50.80;;;;;;;;;;10338593;23;20016;-90
2024/01/19 08:41:28;;;;;;;26.92;12.95;;;;;;;;;;10338723;23;20369;-92
2024/01/19 08:45:33;;;;;;;25.10;11.60;;;;;;;;;;10338685;23;20344;-91
2024/01/19 08:49:36;;;;;;;32.25;12.88;;;;;;;;;;10310532;23;20352;-89
2024/01/19 08:53:39;;;;;;;28.38;11.63;;;;;;;;;;10338242;23;20020;-90
2024/01/19 08:57:42;;;;;;;59.53;20.90;;;;;;;;;;10338749;23;20023;-90
2024/01/19 09:01:47;;;;;;;36.50;16.75;;;;;;;;;;10338195;23;20103;-89
2024/01/19 09:05:50;;;;;;;52.63;17.35;;;;;;;;;;10354963;23;20487;-89
2024/01/19 09:09:53;;;;;;;59.75;24.83;;;;;;;;;;10338893;23;20042;-91
2024/01/19 10:50:48;;;;;;;25.38;11.35;;;;;;;;;;10302945;22;20028;-86
2024/01/19 10:54:51;;;;;;;41.78;17.15;;;;;;;;;;10400541;22;20072;-86
2024/01/19 10:58:54;;;;;;;23.75;11.15;;;;;;;;;;10178310;22;72895;-85
2024/01/19 11:03:58;;;;;;;49.20;22.33;;;;;;;;;;8194528;27;74699;-85
2024/01/19 11:08:36;;;;;;;81.55;35.45;;;;;;;;;;8491072;27;20375;-83
2024/01/19 11:12:47;;;;;;;31.15;12.57;;;;;;;;;;8486130;27;20048;-83
2024/01/19 11:21:50;;;;;;;65.10;22.10;;;;;;;;;;8469826;27;20431;-84
2024/01/19 11:26:17;;;;;;;108.97;32.42;;;;;;;;;;8329253;28;20053;-82
2024/01/19 11:30:43;;;;;;;81.65;30.50;;;;;;;;;;8323604;28;21374;-82
2024/01/19 11:35:13;;;;;;;46.95;19.10;;;;;;;;;;8322587;28;20064;-83
2024/01/19 11:39:51;;;;;;;23.38;10.98;;;;;;;;;;8323476;28;20639;-83
2024/01/19 11:44:27;;;;;;;37.30;15.88;;;;;;;;;;8276115;28;20058;-82
2024/01/19 11:49:10;;;;;;;47.78;15.60;;;;;;;;;;8222686;28;20062;-82
2024/01/19 11:58:00;;;;;;;72.20;20.27;;;;;;;;;;8238737;28;20100;-82
2024/01/19 12:07:03;;;;;;;38.33;15.73;;;;;;;;;;8392546;28;20051;-82
2024/01/19 12:11:13;;;;;;;100.72;42.35;;;;;;;;;;8402551;28;20044;-82
2024/01/19 12:15:21;;;;;;;62.58;21.25;;;;;;;;;;8392351;28;20439;-83
2024/01/19 12:19:23;;;;;;;37.35;17.08;;;;;;;;;;8393492;28;20091;-83
2024/01/19 12:23:32;;;;;;;28.42;13.43;;;;;;;;;;8407461;28;20056;-82
2024/01/19 12:28:01;;;;;;;31.90;12.85;;;;;;;;;;8407691;28;20481;-82
2024/01/19 12:32:26;;;;;;;38.97;13.93;;;;;;;;;;8413652;28;20030;-82
2024/01/19 12:37:03;;;;;;;29.55;12.98;;;;;;;;;;8408704;28;20916;-84
2024/01/19 12:41:12;;;;;;;35.55;15.85;;;;;;;;;;8276258;28;20046;-82
2024/01/19 12:45:19;;;;;;;24.33;11.45;;;;;;;;;;8279901;28;20128;-82
2024/01/19 12:49:21;;;;;;;48.63;21.92;;;;;;;;;;8277221;28;20600;-81
2024/01/19 12:53:23;;;;;;;;;;;;;;;;;;8288732;28;20101;-81
2024/01/19 12:57:26;;;;;;;27.15;14.32;;;;;;;;;;8288292;28;19921;-81
2024/01/19 13:01:28;;;;;;;32.40;13.20;;;;;;;;;;8298588;28;20108;-81
2024/01/19 13:05:31;;;;;;;;;;;;;;;;;;8299182;28;20458;-80
2024/01/19 13:10:14;;;;;;;;;;;;;;;;;;8299271;28;19953;-80
2024/01/19 13:14:23;;;;;;;19.85;7.85;;;;;;;;;;8308848;28;20018;-81
2024/01/19 13:18:25;;;;;;;20.65;8.93;;;;;;;;;;8432992;28;20044;-81
2024/01/19 13:22:27;;;;;;;23.48;9.68;;;;;;;;;;8432838;28;20036;-81
2024/01/19 13:26:30;;;;;;;21.92;9.30;;;;;;;;;;8432836;28;20040;-81
2024/01/19 13:30:34;;;;;;;23.23;10.65;;;;;;;;;;8431590;28;20478;-81
2024/01/19 13:34:36;;;;;;;24.45;11.13;;;;;;;;;;8414171;28;20036;-81
2024/01/19 13:38:38;;;;;;;;;;;;;;;;;;8421634;28;20040;-81
2024/01/19 13:42:40;;;;;;;35.20;12.57;;;;;;;;;;8432388;28;19931;-81
2024/01/19 13:46:43;;;;;;;26.38;11.98;;;;;;;;;;8431673;28;20480;-81
2024/01/19 13:50:45;;;;;;;31.30;14.07;;;;;;;;;;8432092;28;20131;-81
2024/01/19 13:54:47;;;;;;;;;;;;;;;;;;8418568;28;20036;-81
2024/01/19 13:58:50;;;;;;;34.33;15.23;;;;;;;;;;8413537;28;20346;-81
2024/01/19 14:02:53;;;;;;;38.95;16.77;;;;;;;;;;8429978;28;20044;-81
2024/01/19 14:06:56;;;;;;;30.45;12.20;;;;;;;;;;8425226;28;20177;-82
2024/01/19 14:10:58;;;;;;;39.28;19.88;;;;;;;;;;8413380;28;20411;-82
2024/01/19 14:15:00;;;;;;;26.02;12.38;;;;;;;;;;8410942;28;20496;-82
2024/01/19 14:19:04;;;;;;;24.45;12.68;;;;;;;;;;8408274;28;20040;-82
2024/01/19 14:23:25;;;;;;;34.15;14.35;;;;;;;;;;8412116;28;20048;-83
2024/01/19 14:27:29;;;;;;;96.80;29.73;;;;;;;;;;8411087;28;20059;-85
2024/01/19 14:31:31;;;;;;;92.53;24.75;;;;;;;;;;8401870;28;20115;-83
2024/01/19 14:35:34;;;;;;;30.05;11.85;;;;;;;;;;8404434;28;20036;-82
2024/01/19 14:39:36;;;;;;;129.13;33.17;;;;;;;;;;8392888;28;20040;-84
2024/01/19 14:43:38;;;;;;;78.65;25.42;;;;;;;;;;8400516;28;20063;-83
2024/01/19 14:47:57;;;;;;;;;;;;;;;;;;8393818;28;20522;-83
2024/01/19 14:52:01;;;;;;;40.47;19.38;;;;;;;;;;8411663;28;19924;-83
2024/01/19 14:56:08;;;;;;;43.92;21.38;;;;;;;;;;8400840;28;20489;-83
2024/01/19 15:00:16;;;;;;;58.42;21.92;;;;;;;;;;8402338;28;20424;-84
2024/01/19 15:04:36;;;;;;;98.72;28.08;;;;;;;;;;8413659;28;20040;-83
2024/01/19 15:08:43;;;;;;;103.07;29.13;;;;;;;;;;8416337;28;20036;-85
2024/01/19 15:12:45;;;;;;;97.72;28.92;;;;;;;;;;8410034;28;20520;-83
2024/01/19 15:16:50;;;;;;;97.18;28.35;;;;;;;;;;8396819;28;20084;-83
2024/01/19 15:20:53;;;;;;;96.95;30.23;;;;;;;;;;8397807;28;20045;-83
2024/01/19 15:24:58;;;;;;;58.67;25.10;;;;;;;;;;8399143;28;20137;-83
2024/01/19 15:29:03;;;;;;;51.85;20.10;;;;;;;;;;8408141;28;20082;-83
2024/01/19 15:33:05;;;;;;;97.82;26.88;;;;;;;;;;8402596;28;20037;-84
2024/01/19 15:37:09;;;;;;;39.42;14.80;;;;;;;;;;8415162;28;20175;-83
2024/01/19 15:41:21;;;;;;;33.58;13.00;;;;;;;;;;8409283;28;20032;-83
2024/01/19 15:45:23;;;;;;;34.10;14.68;;;;;;;;;;8404190;28;20120;-83
2024/01/19 15:49:27;;;;;;;28.75;12.95;;;;;;;;;;8426849;28;20058;-82
2024/01/19 15:53:31;;;;;;;27.05;11.63;;;;;;;;;;8405542;28;20079;-83
2024/01/19 15:57:37;;;;;;;27.25;12.60;;;;;;;;;;8410154;28;20843;-82
2024/01/19 16:01:39;;;;;;;41.72;15.60;;;;;;;;;;8425672;28;20040;-83
2024/01/19 16:05:46;;;;;;;;;;;;;;;;;;8425479;28;20047;-82
2024/01/19 16:09:51;;;;;;;26.60;12.30;;;;;;;;;;8433795;28;19931;-83
2024/01/19 16:13:57;;;;;;;23.85;11.98;;;;;;;;;;8431568;28;20508;-83
2024/01/19 16:17:59;;;;;;;45.05;15.10;;;;;;;;;;8418914;28;20169;-82
2024/01/19 16:22:01;;;;;;;34.90;14.48;;;;;;;;;;8414280;28;20122;-82
2024/01/19 16:26:03;;;;;;;32.65;13.40;;;;;;;;;;8416291;28;20050;-82
2024/01/19 16:30:07;;;;;;;46.80;19.10;;;;;;;;;;8436966;28;20060;-83
2024/01/19 16:34:10;;;;;;;35.88;12.50;;;;;;;;;;8416417;28;20040;-83
2024/01/19 16:38:12;;;;;;;30.05;11.00;;;;;;;;;;8434110;28;20416;-83
2024/01/19 16:42:14;;;;;;;30.90;9.95;;;;;;;;;;8434003;28;20511;-83
2024/01/19 16:46:23;;;;;;;30.05;11.25;;;;;;;;;;8433867;28;20430;-83
2024/01/19 16:50:45;;;;;;;21.55;10.70;;;;;;;;;;8434279;28;20040;-83
2024/01/19 16:54:51;;;;;;;20.33;8.10;;;;;;;;;;8433834;28;20036;-83
2024/01/19 16:58:54;;;;;;;22.10;9.55;;;;;;;;;;8433436;28;20048;-83
2024/01/19 17:02:57;;;;;;;25.20;8.95;;;;;;;;;;8433274;28;20119;-83
2024/01/19 17:06:59;;;;;;;26.92;12.57;;;;;;;;;;8433178;28;20052;-83
2024/01/19 17:11:01;;;;;;;;;;;;;;;;;;8433424;28;20630;-83
2024/01/19 17:15:03;;;;;;;35.20;12.25;;;;;;;;;;8433328;28;20454;-83
2024/01/19 17:19:08;;;;;;;38.88;14.05;;;;;;;;;;8433177;28;20040;-83
2024/01/19 17:23:18;;;;;;;28.80;13.70;;;;;;;;;;8433099;28;20047;-83
2024/01/19 17:27:20;;;;;;;26.30;10.63;;;;;;;;;;8419549;28;20503;-83
2024/01/19 17:31:23;;;;;;;;;;;;;;;;;;8433466;28;20115;-83
2024/01/19 17:35:26;;;;;;;26.98;10.75;;;;;;;;;;8422562;28;19969;-83
2024/01/19 17:39:28;;;;;;;30.10;11.90;;;;;;;;;;8419057;28;20047;-82
2024/01/19 17:43:30;;;;;;;;;;;;;;;;;;8411863;28;20048;-83
2024/01/19 17:47:33;;;;;;;25.52;10.88;;;;;;;;;;8412165;28;20323;-83
2024/01/19 17:51:36;;;;;;;28.02;8.02;;;;;;;;;;8418987;28;20118;-83
2024/01/19 17:55:38;;;;;;;26.52;10.95;;;;;;;;;;8417558;28;20090;-83
2024/01/19 17:59:40;;;;;;;;;;;;;;;;;;8415590;28;20480;-83
2024/01/19 18:03:42;;;;;;;25.02;10.05;;;;;;;;;;8412276;28;19934;-83
2024/01/19 18:07:46;;;;;;;26.05;10.40;;;;;;;;;;8411404;28;20047;-84
2024/01/19 18:11:49;;;;;;;18.77;8.82;;;;;;;;;;8417924;28;20048;-83
2024/01/19 18:15:54;;;;;;;18.25;9.52;;;;;;;;;;8411688;28;20075;-83
2024/01/19 18:19:56;;;;;;;25.25;10.18;;;;;;;;;;8407010;28;20044;-83
2024/01/19 18:23:59;;;;;;;;;;;;;;;;;;8417570;28;20043;-83
2024/01/19 18:28:01;;;;;;;14.30;7.03;;;;;;;;;;8430920;28;19927;-83
2024/01/19 18:32:03;;;;;;;18.13;7.90;;;;;;;;;;8415428;28;20046;-83
2024/01/19 18:36:06;;;;;;;15.25;9.07;;;;;;;;;;8413428;28;20087;-83
2024/01/19 18:40:11;;;;;;;17.30;8.07;;;;;;;;;;8419557;28;20381;-83
2024/01/19 18:44:13;;;;;;;27.58;9.40;;;;;;;;;;8419030;28;20412;-82
2024/01/19 18:48:17;;;;;;;36.00;12.60;;;;;;;;;;8412719;28;20122;-83
2024/01/19 18:52:21;;;;;;;23.58;11.00;;;;;;;;;;8430489;28;20043;-83
2024/01/19 18:56:25;;;;;;;23.98;11.15;;;;;;;;;;8423252;28;20032;-83
2024/01/19 19:00:27;;;;;;;28.48;10.18;;;;;;;;;;8406847;28;20044;-83
2024/01/19 19:04:32;;;;;;;26.67;12.93;;;;;;;;;;8429268;28;20119;-83
2024/01/19 19:08:34;;;;;;;27.63;12.23;;;;;;;;;;8426643;28;20055;-84
2024/01/19 19:12:40;;;;;;;;;;;;;;;;;;8429415;28;20089;-83
2024/01/19 19:16:47;;;;;;;27.58;11.82;;;;;;;;;;8427926;28;19932;-84
2024/01/19 19:21:14;;;;;;;27.42;9.57;;;;;;;;;;8426986;28;20066;-83
2024/01/19 19:25:16;;;;;;;22.92;10.57;;;;;;;;;;8423790;28;20040;-83
2024/01/19 19:29:19;;;;;;;41.58;15.98;;;;;;;;;;8432156;28;20530;-83
2024/01/19 19:33:21;;;;;;;31.58;12.65;;;;;;;;;;8436525;28;20040;-83
2024/01/19 19:37:23;;;;;;;;;;;;;;;;;;8435632;28;20051;-83
2024/01/19 19:41:25;;;;;;;27.33;11.93;;;;;;;;;;8436494;28;19955;-83
2024/01/19 19:45:28;;;;;;;24.60;11.38;;;;;;;;;;8433072;28;20961;-83
2024/01/19 19:49:30;;;;;;;25.02;10.90;;;;;;;;;;8435743;28;20039;-83
2024/01/19 19:53:32;;;;;;;26.75;12.95;;;;;;;;;;8435926;28;20519;-83
2024/01/19 19:57:34;;;;;;;;;;;;;;;;;;8436543;28;20118;-83
2024/01/19 20:01:37;;;;;;;20.70;9.10;;;;;;;;;;8432424;28;20015;-84
2024/01/19 20:05:39;;;;;;;19.35;9.85;;;;;;;;;;8422239;28;20063;-83
2024/01/19 20:09:41;;;;;;;;;;;;;;;;;;8434716;28;20036;-83
2024/01/19 20:13:48;;;;;;;22.48;9.27;;;;;;;;;;8434912;28;20291;-83
2024/01/19 20:17:51;;;;;;;23.33;8.82;;;;;;;;;;8428966;28;20051;-83
2024/01/19 20:21:53;;;;;;;31.67;10.15;;;;;;;;;;8420702;28;20408;-83
2024/01/19 20:25:55;;;;;;;;;;;;;;;;;;8427799;28;20043;-83
2024/01/19 20:29:57;;;;;;;14.93;7.85;;;;;;;;;;8432533;28;20015;-83
2024/01/19 20:34:00;;;;;;;;;;;;;;;;;;8434160;28;20032;-83
2024/01/19 20:38:03;;;;;;;9.43;4.03;;;;;;;;;;8433572;28;19920;-83
2024/01/19 20:42:05;;;;;;;22.63;8.65;;;;;;;;;;8428755;28;20123;-82
2024/01/19 20:46:07;;;;;;;17.38;8.27;;;;;;;;;;8433984;28;20514;-83
2024/01/19 20:50:11;;;;;;;;;;;;;;;;;;8431141;28;20067;-83
2024/01/19 20:54:13;;;;;;;22.45;8.38;;;;;;;;;;8432584;28;20018;-83
2024/01/19 20:58:20;;;;;;;20.27;9.57;;;;;;;;;;8430504;28;20365;-83
2024/01/19 21:02:28;;;;;;;24.17;11.07;;;;;;;;;;8433174;28;20036;-83
2024/01/19 21:06:32;;;;;;;26.50;12.05;;;;;;;;;;8430335;28;20036;-83
2024/01/19 21:10:35;;;;;;;22.98;9.80;;;;;;;;;;8433540;28;20059;-82
2024/01/19 21:14:37;;;;;;;19.65;9.35;;;;;;;;;;8428403;28;20044;-83
2024/01/19 21:18:39;;;;;;;22.80;7.70;;;;;;;;;;8409832;28;20048;-83
2024/01/19 21:22:43;;;;;;;;;;;;;;;;;;8424977;28;20037;-82
2024/01/19 21:26:47;;;;;;;15.65;6.82;;;;;;;;;;8421040;28;19926;-82
2024/01/19 21:30:57;;;;;;;20.60;7.53;;;;;;;;;;8427994;28;20139;-82
2024/01/19 21:35:21;;;;;;;17.52;7.47;;;;;;;;;;8428037;28;20093;-83
2024/01/19 21:39:24;;;;;;;16.95;6.72;;;;;;;;;;8428084;28;20051;-83
2024/01/19 21:43:26;;;;;;;16.02;6.78;;;;;;;;;;8431041;28;20061;-83
2024/01/19 21:47:30;;;;;;;21.15;8.48;;;;;;;;;;8432013;28;20117;-82
2024/01/19 21:51:32;;;;;;;18.42;7.63;;;;;;;;;;8417688;28;20048;-83
2024/01/19 21:55:36;;;;;;;18.88;8.18;;;;;;;;;;8428259;28;20094;-82
2024/01/19 21:59:42;;;;;;;16.23;7.63;;;;;;;;;;8418270;28;20036;-83
2024/01/19 22:03:44;;;;;;;15.77;7.38;;;;;;;;;;8431885;28;20044;-82
2024/01/19 22:07:46;;;;;;;;;;;;;;;;;;8431978;28;20058;-82
2024/01/19 22:11:49;;;;;;;24.45;8.45;;;;;;;;;;8431718;28;19920;-82
2024/01/19 22:15:51;;;;;;;19.00;6.63;;;;;;;;;;8431261;28;20039;-82
2024/01/19 22:19:54;;;;;;;18.70;7.70;;;;;;;;;;8431831;28;20055;-82
2024/01/19 22:23:56;;;;;;;16.27;6.85;;;;;;;;;;8431182;28;20035;-83
2024/01/19 22:28:00;;;;;;;14.65;7.85;;;;;;;;;;8430906;28;20044;-83
2024/01/19 22:32:02;;;;;;;21.27;8.00;;;;;;;;;;8427065;28;20047;-82
2024/01/19 22:36:04;;;;;;;;;;;;;;;;;;8431070;28;20046;-82
2024/01/19 22:40:08;;;;;;;19.98;7.90;;;;;;;;;;8429863;28;19927;-82
2024/01/19 22:44:13;;;;;;;18.55;7.72;;;;;;;;;;8430540;28;20046;-83
2024/01/19 22:48:15;;;;;;;24.95;8.32;;;;;;;;;;8417066;28;20043;-82
2024/01/19 22:52:17;;;;;;;;;;;;;;;;;;8430539;28;20040;-82
2024/01/19 22:56:19;;;;;;;18.15;7.75;;;;;;;;;;8430399;28;19920;-83
2024/01/19 23:00:22;;;;;;;;;;;;;;;;;;8420267;28;20119;-83
2024/01/19 23:04:24;;;;;;;18.45;7.45;;;;;;;;;;8424716;28;19923;-83
2024/01/19 23:13:51;;;;;;;21.98;9.88;;;;;;;;;;8424729;28;20069;-83
2024/01/19 23:17:55;;;;;;;21.40;8.35;;;;;;;;;;8430104;28;20079;-83
2024/01/19 23:22:16;;;;;;;22.60;8.25;;;;;;;;;;8429800;28;20036;-83
2024/01/19 23:26:18;;;;;;;24.70;7.65;;;;;;;;;;8423525;28;20041;-82
2024/01/19 23:30:20;;;;;;;16.63;7.60;;;;;;;;;;8426660;28;20032;-82
2024/01/19 23:34:24;;;;;;;18.33;8.00;;;;;;;;;;8416317;28;20404;-82
2024/01/19 23:38:26;;;;;;;17.58;6.65;;;;;;;;;;8429373;28;20039;-83
2024/01/19 23:42:28;;;;;;;18.77;8.60;;;;;;;;;;8429640;28;20048;-83
2024/01/19 23:46:30;;;;;;;;;;;;;;;;;;8429987;28;20493;-82
2024/01/19 23:50:34;;;;;;;14.40;6.95;;;;;;;;;;8429576;28;19920;-82
2024/01/19 23:54:36;;;;;;;22.75;8.13;;;;;;;;;;8429373;28;20962;-83
2024/01/19 23:58:37;;;;;;;;;;;;;;;;;;8429892;28;20463;-83
